Time;durP1;ratioP1;P1;durP2;ratioP2;P2;SDS_P1;SDS_P2;PMS_P1;PMS_P2;Temp;Humidity;BMP_temperature;BMP_pressure;BME280_temperature;BME280_humidity;BME280_pressure;Samples;Min_cycle;Max_cycle;Signal;HPM_P1;HPM_P2
2022/10/31 00:00:46;;;;;;;9.33;6.83;;;14.90;97.90;;;;;;5044373;28;20204;-88
2022/10/31 00:03:12;;;;;;;9.67;7.60;;;14.80;98.00;;;;;;5042686;28;20181;-88
2022/10/31 00:05:46;;;;;;;7.73;6.97;;;14.70;98.90;;;;;;5034607;28;20296;-88
2022/10/31 00:08:12;;;;;;;7.63;6.67;;;14.70;98.30;;;;;;5055511;28;20250;-88
2022/10/31 00:10:39;;;;;;;7.30;6.50;;;14.70;99.10;;;;;;5042194;28;20191;-88
2022/10/31 00:13:06;;;;;;;7.43;6.63;;;14.70;98.50;;;;;;5041170;28;20227;-87
2022/10/31 00:15:33;;;;;;;7.23;6.33;;;14.70;98.70;;;;;;5042014;28;20204;-90
2022/10/31 00:17:59;;;;;;;7.00;6.40;;;14.70;97.50;;;;;;5034473;28;20223;-87
2022/10/31 00:20:24;;;;;;;6.60;5.90;;;14.70;97.30;;;;;;5037746;28;20215;-88
2022/10/31 00:22:50;;;;;;;6.07;5.47;;;14.60;95.80;;;;;;5034427;28;20198;-88
2022/10/31 00:25:16;;;;;;;10.27;6.30;;;14.60;96.80;;;;;;5035797;28;20187;-89
2022/10/31 00:27:41;;;;;;;6.57;5.97;;;14.60;96.70;;;;;;5039988;28;20197;-87
2022/10/31 00:30:07;;;;;;;7.30;6.70;;;14.50;97.30;;;;;;5041478;28;20204;-87
2022/10/31 00:32:33;;;;;;;8.23;6.40;;;14.60;97.70;;;;;;5042172;28;20183;-87
2022/10/31 00:34:59;;;;;;;6.40;5.80;;;14.40;97.20;;;;;;5041417;28;20258;-88
2022/10/31 00:37:24;;;;;;;10.40;6.23;;;14.40;98.40;;;;;;5034339;28;20192;-87
2022/10/31 00:39:50;;;;;;;6.77;5.47;;;14.40;97.80;;;;;;5037632;28;20223;-89
2022/10/31 00:42:16;;;;;;;5.90;5.40;;;14.40;97.60;;;;;;5035388;28;20276;-90
2022/10/31 00:44:41;;;;;;;6.53;5.93;;;14.40;97.30;;;;;;5029070;28;20189;-88
2022/10/31 00:47:07;;;;;;;7.53;6.53;;;14.30;96.50;;;;;;5034323;28;20191;-88
2022/10/31 00:49:33;;;;;;;7.57;6.70;;;14.20;98.50;;;;;;5041894;28;20230;-88
2022/10/31 00:51:58;;;;;;;7.17;6.47;;;14.20;99.90;;;;;;5041192;28;20210;-90
2022/10/31 00:54:24;;;;;;;8.13;6.90;;;14.30;99.90;;;;;;5040940;28;20185;-88
2022/10/31 00:56:49;;;;;;;7.70;7.10;;;14.30;99.90;;;;;;5037441;28;20182;-88
2022/10/31 00:59:15;;;;;;;9.77;7.20;;;14.30;99.90;;;;;;5031898;28;20250;-88
2022/10/31 01:01:41;;;;;;;8.20;7.00;;;14.30;99.90;;;;;;5021598;28;20219;-89
2022/10/31 01:04:07;;;;;;;8.67;7.03;;;14.20;99.90;;;;;;5025921;28;20219;-87
2022/10/31 01:06:32;;;;;;;7.23;6.53;;;14.10;99.90;;;;;;5032983;28;20277;-88
2022/10/31 01:08:58;;;;;;;6.67;6.00;;;14.20;99.90;;;;;;5034636;28;20213;-89
2022/10/31 01:11:23;;;;;;;11.30;6.37;;;14.30;99.90;;;;;;5004387;28;20505;-88
2022/10/31 01:13:51;;;;;;;6.40;5.90;;;14.30;99.30;;;;;;5038001;28;20197;-90
2022/10/31 01:16:19;;;;;;;7.00;5.83;;;14.30;98.30;;;;;;5028456;28;20191;-90
2022/10/31 01:18:46;;;;;;;6.40;5.80;;;14.20;97.60;;;;;;5034848;28;20313;-88
2022/10/31 01:21:20;;;;;;;6.60;5.97;;;14.20;98.70;;;;;;5041235;28;20200;-88
2022/10/31 01:23:46;;;;;;;6.37;5.43;;;14.30;98.50;;;;;;5032138;28;20184;-90
2022/10/31 01:26:12;;;;;;;6.67;5.90;;;14.30;97.80;;;;;;5041926;28;20614;-88
2022/10/31 01:28:42;;;;;;;6.10;5.60;;;14.30;98.10;;;;;;5037353;28;20212;-88
2022/10/31 01:31:09;;;;;;;6.23;5.63;;;14.30;97.50;;;;;;5041996;28;20176;-89
2022/10/31 01:33:36;;;;;;;8.40;5.67;;;14.20;97.10;;;;;;5041487;28;20181;-88
2022/10/31 01:36:15;;;;;;;8.27;6.07;;;14.20;98.00;;;;;;5041496;28;20193;-89
2022/10/31 01:38:41;;;;;;;6.50;5.87;;;14.20;96.80;;;;;;5039575;28;20697;-88
2022/10/31 01:41:08;;;;;;;8.57;6.27;;;14.10;97.70;;;;;;5050737;28;20245;-88
2022/10/31 01:43:45;;;;;;;6.03;5.43;;;14.00;96.80;;;;;;5039166;28;20197;-88
2022/10/31 01:46:12;;;;;;;5.90;5.30;;;13.90;97.40;;;;;;5033013;28;20181;-88
2022/10/31 01:48:39;;;;;;;6.07;5.10;;;13.90;98.50;;;;;;5033655;28;20215;-89
2022/10/31 01:51:05;;;;;;;5.67;5.13;;;13.90;98.10;;;;;;5039255;28;20291;-89
2022/10/31 01:53:31;;;;;;;6.17;5.57;;;13.90;98.00;;;;;;5031351;28;20788;-89
2022/10/31 01:55:59;;;;;;;5.57;5.00;;;13.90;97.80;;;;;;5023945;28;20219;-90
2022/10/31 01:58:27;;;;;;;6.90;5.60;;;13.90;97.60;;;;;;5035983;28;20246;-90
2022/10/31 02:00:58;;;;;;;6.20;5.60;;;13.80;96.20;;;;;;5025255;28;20212;-89
2022/10/31 02:03:26;;;;;;;6.40;5.90;;;13.80;97.50;;;;;;5027384;28;20188;-89
2022/10/31 02:05:55;;;;;;;6.23;5.70;;;13.60;97.00;;;;;;5041502;28;20191;-90
2022/10/31 02:08:27;;;;;;;7.93;5.97;;;13.60;99.30;;;;;;5028201;28;20238;-89
2022/10/31 02:10:53;;;;;;;8.97;5.77;;;13.70;99.60;;;;;;5028511;28;20196;-89
2022/10/31 02:13:22;;;;;;;6.20;5.70;;;13.60;98.60;;;;;;5038180;28;20184;-91
2022/10/31 02:15:51;;;;;;;6.20;5.60;;;13.70;99.70;;;;;;5037467;28;20225;-90
2022/10/31 02:18:18;;;;;;;5.93;5.43;;;13.80;99.30;;;;;;5044368;28;20205;-90
2022/10/31 02:21:01;;;;;;;10.00;5.90;;;13.80;98.80;;;;;;5049546;28;20205;-91
2022/10/31 02:24:05;;;;;;;5.93;5.43;;;13.90;98.40;;;;;;5040617;28;20189;-89
2022/10/31 02:26:49;;;;;;;8.27;5.30;;;13.90;98.10;;;;;;5032857;28;20194;-89
2022/10/31 02:29:18;;;;;;;7.93;5.90;;;14.00;98.20;;;;;;5030005;28;20247;-89
2022/10/31 02:31:55;;;;;;;5.43;5.03;;;13.90;99.10;;;;;;5034446;28;20185;-90
2022/10/31 02:34:49;;;;;;;5.27;4.87;;;13.90;97.90;;;;;;5024743;28;20190;-89
2022/10/31 02:37:22;;;;;;;7.50;5.40;;;13.90;96.90;;;;;;5036611;28;20185;-89
2022/10/31 02:39:58;;;;;;;5.77;5.17;;;13.70;95.60;;;;;;5040607;28;20251;-90
2022/10/31 02:42:38;;;;;;;6.67;5.10;;;13.70;97.80;;;;;;5028162;28;20193;-90
2022/10/31 02:45:18;;;;;;;5.50;5.00;;;13.70;98.80;;;;;;5036981;28;20188;-90
2022/10/31 02:47:46;;;;;;;8.73;5.30;;;13.70;97.60;;;;;;5027824;28;20186;-89
2022/10/31 02:50:34;;;;;;;5.80;5.30;;;13.60;97.80;;;;;;5030163;28;20311;-90
2022/10/31 02:53:01;;;;;;;6.33;5.30;;;13.60;97.20;;;;;;5029459;28;20185;-89
2022/10/31 02:55:26;;;;;;;5.67;5.17;;;13.40;98.50;;;;;;5044038;28;20204;-90
2022/10/31 02:57:57;;;;;;;11.60;5.27;;;13.40;99.80;;;;;;5044622;28;20196;-89
2022/10/31 03:00:23;;;;;;;6.33;5.13;;;13.40;99.70;;;;;;5027533;28;20234;-91
2022/10/31 03:03:30;;;;;;;8.53;4.97;;;13.50;99.50;;;;;;5040189;28;20196;-90
2022/10/31 03:06:26;;;;;;;7.33;5.40;;;13.60;98.80;;;;;;5032325;28;20205;-91
2022/10/31 03:09:01;;;;;;;5.70;5.20;;;13.60;98.60;;;;;;5031634;28;20224;-89
2022/10/31 03:11:36;;;;;;;8.20;5.63;;;13.60;97.60;;;;;;5031599;28;20671;-89
2022/10/31 03:14:27;;;;;;;7.83;5.73;;;13.60;98.10;;;;;;5033093;28;20231;-89
2022/10/31 03:16:55;;;;;;;5.43;4.93;;;13.60;98.90;;;;;;5035740;28;20194;-89
2022/10/31 03:19:31;;;;;;;7.60;4.93;;;13.50;99.90;;;;;;5037224;28;20244;-90
2022/10/31 03:22:17;;;;;;;6.97;5.30;;;13.60;99.90;;;;;;5028157;28;20201;-90
2022/10/31 03:24:44;;;;;;;6.93;4.90;;;13.60;99.90;;;;;;5035719;28;20203;-90
2022/10/31 03:27:13;;;;;;;5.80;5.20;;;13.60;99.20;;;;;;5036296;28;20186;-89
2022/10/31 03:29:42;;;;;;;6.93;5.07;;;13.60;98.80;;;;;;5023927;28;20343;-89
2022/10/31 03:32:16;;;;;;;5.73;5.23;;;13.70;98.10;;;;;;5035321;28;20201;-89
2022/10/31 03:34:43;;;;;;;5.20;4.80;;;13.70;97.90;;;;;;5031082;28;20197;-89
2022/10/31 03:37:13;;;;;;;5.50;4.97;;;13.60;97.40;;;;;;5038167;28;20194;-89
2022/10/31 03:39:42;;;;;;;5.60;5.03;;;13.60;97.40;;;;;;5038989;28;20225;-89
2022/10/31 03:42:13;;;;;;;5.67;4.83;;;13.50;97.30;;;;;;5030957;28;20182;-89
2022/10/31 03:44:43;;;;;;;5.70;4.80;;;13.50;97.30;;;;;;5036396;28;20177;-89
2022/10/31 03:47:09;;;;;;;8.30;5.10;;;13.50;97.30;;;;;;5042158;28;20200;-89
2022/10/31 03:49:35;;;;;;;8.07;4.83;;;13.50;96.80;;;;;;5042410;28;20198;-89
2022/10/31 03:52:26;;;;;;;5.40;5.00;;;13.50;97.20;;;;;;5043275;28;20196;-89
2022/10/31 03:54:57;;;;;;;6.40;4.63;;;13.50;97.50;;;;;;5034653;28;20202;-89
2022/10/31 03:58:05;;;;;;;5.87;5.03;;;13.50;98.10;;;;;;5027893;28;20221;-88
2022/10/31 04:00:33;;;;;;;5.97;4.93;;;13.50;97.00;;;;;;5036557;28;20217;-88
2022/10/31 04:03:04;;;;;;;9.13;5.00;;;13.40;95.70;;;;;;5039138;28;20200;-88
2022/10/31 04:05:30;;;;;;;5.43;4.90;;;13.20;96.10;;;;;;5038121;28;20222;-88
2022/10/31 04:07:59;;;;;;;5.03;4.53;;;13.10;97.50;;;;;;5038405;28;20198;-88
2022/10/31 04:10:27;;;;;;;4.90;4.50;;;13.10;97.30;;;;;;5031092;28;20189;-89
2022/10/31 04:13:00;;;;;;;6.63;4.20;;;13.20;97.80;;;;;;5034089;28;20197;-89
2022/10/31 04:15:27;;;;;;;6.13;4.70;;;13.10;97.40;;;;;;5037963;28;20194;-88
2022/10/31 04:17:55;;;;;;;5.70;5.13;;;13.10;97.80;;;;;;5029886;28;20399;-89
2022/10/31 04:20:30;;;;;;;8.70;5.27;;;13.10;96.70;;;;;;5026436;28;20202;-89
2022/10/31 04:22:56;;;;;;;6.43;4.77;;;13.10;98.20;;;;;;5033538;28;20207;-89
2022/10/31 04:25:22;;;;;;;5.10;4.70;;;13.10;98.90;;;;;;5027837;28;20203;-89
2022/10/31 04:27:47;;;;;;;6.70;4.53;;;13.00;98.30;;;;;;5030275;28;20189;-88
2022/10/31 04:30:13;;;;;;;5.17;4.67;;;13.00;97.70;;;;;;5040088;28;20221;-87
2022/10/31 04:32:39;;;;;;;7.57;4.80;;;13.10;97.50;;;;;;5037718;28;20294;-88
2022/10/31 04:35:05;;;;;;;7.13;5.00;;;13.00;97.30;;;;;;5031736;28;20210;-89
2022/10/31 04:37:31;;;;;;;5.40;4.80;;;13.10;97.60;;;;;;5032843;28;20204;-89
2022/10/31 04:39:56;;;;;;;4.80;4.40;;;13.00;97.50;;;;;;5032920;28;20225;-88
2022/10/31 04:42:22;;;;;;;6.87;4.77;;;13.00;97.70;;;;;;5031622;28;20205;-89
2022/10/31 04:44:47;;;;;;;5.57;4.77;;;13.00;95.50;;;;;;5031855;28;20177;-89
2022/10/31 04:47:13;;;;;;;5.53;4.83;;;12.80;95.90;;;;;;5036685;28;20188;-89
2022/10/31 04:49:39;;;;;;;5.80;4.70;;;12.80;97.70;;;;;;5034692;28;20207;-89
2022/10/31 04:52:04;;;;;;;5.37;4.67;;;12.60;97.70;;;;;;5032982;28;20219;-89
2022/10/31 04:54:30;;;;;;;6.43;4.77;;;12.70;98.50;;;;;;5031193;28;20222;-89
2022/10/31 04:56:55;;;;;;;6.93;4.67;;;12.60;96.20;;;;;;5036317;28;20256;-89
2022/10/31 04:59:21;;;;;;;8.53;5.10;;;12.50;98.30;;;;;;5029990;28;20228;-89
2022/10/31 05:01:47;;;;;;;5.50;4.70;;;12.50;98.70;;;;;;5035008;28;20249;-89
2022/10/31 05:04:12;;;;;;;6.90;5.23;;;12.60;98.40;;;;;;5012102;28;20207;-88
2022/10/31 05:06:38;;;;;;;8.77;5.00;;;12.70;98.30;;;;;;5031961;28;20192;-89
2022/10/31 05:09:04;;;;;;;7.50;5.50;;;12.70;99.20;;;;;;5028685;28;20213;-88
2022/10/31 05:11:29;;;;;;;5.27;4.77;;;12.60;98.30;;;;;;5031903;28;20231;-89
2022/10/31 05:13:55;;;;;;;5.60;4.43;;;12.60;98.60;;;;;;5031451;28;20189;-88
2022/10/31 05:16:21;;;;;;;6.43;4.93;;;12.60;98.00;;;;;;5038382;28;20594;-89
2022/10/31 05:18:46;;;;;;;5.40;4.57;;;12.60;97.80;;;;;;5032986;28;20237;-89
2022/10/31 05:21:12;;;;;;;7.20;4.53;;;12.60;97.10;;;;;;5028643;28;20220;-89
2022/10/31 05:23:37;;;;;;;7.67;5.13;;;12.60;96.70;;;;;;5030582;28;20603;-88
2022/10/31 05:26:04;;;;;;;5.50;4.60;;;12.60;96.80;;;;;;5029371;28;20228;-88
2022/10/31 05:28:29;;;;;;;7.57;4.83;;;12.40;96.50;;;;;;5013123;28;20246;-88
2022/10/31 05:30:55;;;;;;;5.93;4.70;;;12.40;98.60;;;;;;5035617;28;20205;-88
2022/10/31 05:33:21;;;;;;;6.13;5.17;;;12.40;98.30;;;;;;5042091;28;20215;-88
2022/10/31 05:35:46;;;;;;;5.70;4.90;;;12.40;97.60;;;;;;5041067;28;20202;-88
2022/10/31 05:38:12;;;;;;;5.00;4.50;;;12.40;98.50;;;;;;5024693;28;20227;-88
2022/10/31 05:40:37;;;;;;;7.37;5.20;;;12.40;97.90;;;;;;5027645;28;20568;-88
2022/10/31 05:43:03;;;;;;;5.30;4.80;;;12.40;97.40;;;;;;5029705;28;20583;-89
2022/10/31 05:45:29;;;;;;;16.17;6.10;;;12.20;98.60;;;;;;5038601;28;20300;-88
2022/10/31 05:47:57;;;;;;;4.67;4.27;;;12.30;96.90;;;;;;5034945;28;20713;-88
2022/10/31 05:50:23;;;;;;;7.43;5.20;;;12.30;97.80;;;;;;5035505;28;20205;-88
2022/10/31 05:53:01;;;;;;;5.57;4.93;;;12.30;96.80;;;;;;5024119;28;20641;-88
2022/10/31 05:55:28;;;;;;;5.97;5.03;;;12.30;97.40;;;;;;5038186;28;20242;-88
2022/10/31 05:57:54;;;;;;;6.40;4.87;;;12.20;98.70;;;;;;5045390;28;20275;-89
2022/10/31 06:00:21;;;;;;;6.10;4.90;;;12.30;98.30;;;;;;5030432;28;20241;-89
2022/10/31 06:02:47;;;;;;;5.33;4.83;;;12.30;97.60;;;;;;5033740;28;20191;-86
2022/10/31 06:05:13;;;;;;;4.93;4.43;;;12.30;98.40;;;;;;5023138;28;20239;-89
2022/10/31 06:07:39;;;;;;;6.50;5.20;;;12.30;98.30;;;;;;5031966;28;20188;-88
2022/10/31 06:10:06;;;;;;;9.93;5.23;;;12.40;98.00;;;;;;5023237;28;20634;-88
2022/10/31 06:12:37;;;;;;;7.63;5.63;;;12.40;98.00;;;;;;5029673;28;20202;-89
2022/10/31 06:15:07;;;;;;;6.90;5.50;;;12.40;97.10;;;;;;5036909;28;20198;-89
2022/10/31 06:17:34;;;;;;;10.40;5.40;;;12.30;96.30;;;;;;5036766;28;20213;-88
2022/10/31 06:20:00;;;;;;;8.20;5.37;;;12.30;97.10;;;;;;5029604;28;20316;-89
2022/10/31 06:22:25;;;;;;;12.67;6.13;;;12.20;96.40;;;;;;5031411;28;20246;-87
2022/10/31 06:24:51;;;;;;;9.03;5.90;;;12.10;95.70;;;;;;5027205;28;20197;-88
2022/10/31 06:27:17;;;;;;;6.33;5.43;;;12.20;98.90;;;;;;5031686;28;20266;-89
2022/10/31 06:29:43;;;;;;;12.70;6.37;;;12.20;99.50;;;;;;5036788;28;20208;-89
2022/10/31 06:32:12;;;;;;;8.70;6.03;;;12.20;99.70;;;;;;5033221;28;20196;-89
2022/10/31 06:34:39;;;;;;;8.93;6.17;;;12.30;99.90;;;;;;5034384;28;20226;-89
2022/10/31 06:37:10;;;;;;;7.93;5.93;;;12.40;99.90;;;;;;5036240;28;20287;-89
2022/10/31 06:39:35;;;;;;;8.20;5.50;;;12.50;99.60;;;;;;5041685;28;20226;-88
2022/10/31 06:42:02;;;;;;;8.03;5.00;;;12.50;99.80;;;;;;5016809;28;20688;-89
2022/10/31 06:44:27;;;;;;;7.40;5.03;;;12.50;99.90;;;;;;5033963;28;20205;-89
2022/10/31 06:46:53;;;;;;;16.13;6.50;;;12.50;99.50;;;;;;5035719;28;20184;-88
2022/10/31 06:49:19;;;;;;;19.17;6.67;;;12.40;98.30;;;;;;5026068;28;20694;-89
2022/10/31 06:51:47;;;;;;;7.87;5.53;;;12.40;97.50;;;;;;5025869;28;20190;-89
2022/10/31 06:54:13;;;;;;;6.70;5.63;;;12.40;99.40;;;;;;5030753;28;20197;-88
2022/10/31 06:56:39;;;;;;;12.43;5.60;;;12.60;99.80;;;;;;5029163;28;20209;-88
2022/10/31 06:59:05;;;;;;;9.77;5.30;;;12.50;97.90;;;;;;5030679;28;20214;-89
2022/10/31 07:01:30;;;;;;;9.03;5.83;;;12.50;99.40;;;;;;5039837;28;20222;-88
2022/10/31 07:03:56;;;;;;;8.30;5.40;;;12.60;98.90;;;;;;5034370;28;20195;-89
2022/10/31 07:06:22;;;;;;;7.47;5.90;;;12.70;98.20;;;;;;5029003;28;20208;-89
2022/10/31 07:08:47;;;;;;;8.03;6.37;;;12.70;97.60;;;;;;5033297;28;20224;-89
2022/10/31 07:11:13;;;;;;;7.97;7.27;;;12.50;98.40;;;;;;5031393;28;20250;-88
2022/10/31 07:13:38;;;;;;;6.97;6.30;;;12.50;99.30;;;;;;5042197;28;20237;-88
2022/10/31 07:16:11;;;;;;;8.43;7.43;;;12.50;99.90;;;;;;5033420;28;20208;-88
2022/10/31 07:18:37;;;;;;;7.00;6.23;;;12.50;99.90;;;;;;5020201;28;20299;-89
2022/10/31 07:21:04;;;;;;;8.17;6.97;;;12.50;99.90;;;;;;5045731;28;20223;-88
2022/10/31 07:23:29;;;;;;;10.13;9.20;;;12.50;99.90;;;;;;5045195;28;20197;-88
2022/10/31 07:25:56;;;;;;;9.07;8.27;;;12.40;99.90;;;;;;5034093;28;20196;-88
2022/10/31 07:28:23;;;;;;;7.57;6.97;;;12.50;99.90;;;;;;5042073;28;20214;-88
2022/10/31 07:30:57;;;;;;;6.90;6.30;;;12.50;99.90;;;;;;5041713;28;20186;-87
2022/10/31 07:33:25;;;;;;;5.70;5.17;;;12.70;99.90;;;;;;5041745;28;20204;-89
2022/10/31 07:35:51;;;;;;;7.60;5.67;;;12.70;99.90;;;;;;5036451;28;20710;-89
2022/10/31 07:38:17;;;;;;;5.87;5.37;;;12.80;99.90;;;;;;5040494;28;20218;-88
2022/10/31 07:40:43;;;;;;;9.83;5.50;;;12.80;99.90;;;;;;5039404;28;20702;-88
2022/10/31 07:43:11;;;;;;;10.60;5.93;;;12.70;99.90;;;;;;5040873;28;20553;-88
2022/10/31 07:45:37;;;;;;;20.57;8.43;;;12.80;99.90;;;;;;5039320;28;20350;-88
2022/10/31 07:48:03;;;;;;;82.77;13.27;;;12.90;99.90;;;;;;5035871;28;20225;-88
2022/10/31 07:50:31;;;;;;;32.87;9.33;;;13.00;99.90;;;;;;5026254;28;20193;-88
2022/10/31 07:53:11;;;;;;;14.33;6.40;;;13.10;99.90;;;;;;5040618;28;20195;-88
2022/10/31 07:55:37;;;;;;;9.17;5.70;;;13.20;99.90;;;;;;5031892;28;20192;-89
2022/10/31 07:58:04;;;;;;;6.33;5.77;;;13.30;99.90;;;;;;5041043;28;20212;-88
2022/10/31 08:00:31;;;;;;;8.40;6.60;;;13.30;99.90;;;;;;5039563;28;20210;-87
2022/10/31 08:03:02;;;;;;;8.27;6.17;;;13.20;99.90;;;;;;5035704;28;20275;-88
2022/10/31 08:05:28;;;;;;;8.83;6.97;;;13.30;99.90;;;;;;5037808;28;20666;-87
2022/10/31 08:07:54;;;;;;;7.57;6.20;;;13.40;99.90;;;;;;5037872;28;20177;-88
2022/10/31 08:10:20;;;;;;;6.77;6.10;;;13.60;99.90;;;;;;5034251;28;20197;-88
2022/10/31 08:12:46;;;;;;;7.97;6.23;;;13.70;99.90;;;;;;5031889;28;20187;-87
2022/10/31 08:15:12;;;;;;;7.60;6.60;;;13.70;99.90;;;;;;5039047;28;20199;-88
2022/10/31 08:17:38;;;;;;;7.17;6.47;;;13.80;99.90;;;;;;5030907;28;20189;-87
2022/10/31 08:20:05;;;;;;;7.10;6.40;;;13.80;99.90;;;;;;5033676;28;20254;-87
2022/10/31 08:22:31;;;;;;;7.37;6.50;;;13.90;99.90;;;;;;5038168;28;20190;-88
2022/10/31 08:24:57;;;;;;;6.27;5.67;;;13.70;99.90;;;;;;5039704;28;20189;-88
2022/10/31 08:27:23;;;;;;;8.17;6.77;;;13.70;99.90;;;;;;5039428;28;20179;-90
2022/10/31 08:29:49;;;;;;;7.57;6.57;;;13.80;99.90;;;;;;5040477;28;20213;-89
2022/10/31 08:32:14;;;;;;;8.10;6.63;;;13.70;99.90;;;;;;5037776;28;20192;-89
2022/10/31 08:34:40;;;;;;;8.87;6.80;;;13.60;99.90;;;;;;5035058;28;20668;-90
2022/10/31 08:37:05;;;;;;;9.80;6.70;;;13.80;99.90;;;;;;5037753;28;20189;-90
2022/10/31 08:39:31;;;;;;;9.30;5.93;;;13.80;99.90;;;;;;5037787;28;20772;-89
2022/10/31 08:41:57;;;;;;;8.30;7.03;;;14.00;99.90;;;;;;5030485;28;20220;-90
2022/10/31 08:44:22;;;;;;;7.70;6.57;;;14.10;99.90;;;;;;5029024;28;20220;-89
2022/10/31 08:46:49;;;;;;;9.50;6.03;;;14.20;99.90;;;;;;5044020;28;20184;-89
2022/10/31 08:49:15;;;;;;;7.37;6.47;;;14.20;99.90;;;;;;5043954;28;20212;-89
2022/10/31 08:51:40;;;;;;;8.93;5.97;;;14.10;99.90;;;;;;5041123;28;20324;-90
2022/10/31 08:54:06;;;;;;;7.87;6.17;;;14.10;99.90;;;;;;5033699;28;20200;-90
2022/10/31 08:56:32;;;;;;;12.43;6.47;;;14.30;99.90;;;;;;5031930;28;20190;-90
2022/10/31 08:58:57;;;;;;;7.07;6.37;;;14.30;99.90;;;;;;5043344;28;20209;-90
2022/10/31 09:01:23;;;;;;;7.10;6.40;;;14.30;99.90;;;;;;5038917;28;20237;-90
2022/10/31 09:03:49;;;;;;;7.30;6.60;;;14.40;99.90;;;;;;5038551;28;20185;-90
2022/10/31 09:06:14;;;;;;;9.43;7.00;;;14.40;99.90;;;;;;5034874;28;20272;-89
2022/10/31 09:08:40;;;;;;;9.53;6.47;;;14.50;99.90;;;;;;5032635;28;20268;-90
2022/10/31 09:11:06;;;;;;;7.80;6.63;;;14.50;99.90;;;;;;5039074;28;20192;-90
2022/10/31 09:13:32;;;;;;;10.13;6.60;;;14.40;99.90;;;;;;5037619;28;20254;-90
2022/10/31 09:16:00;;;;;;;7.60;6.57;;;14.60;99.90;;;;;;5038175;28;20594;-90
2022/10/31 09:18:27;;;;;;;7.77;6.20;;;14.40;99.90;;;;;;5039655;28;20214;-90
2022/10/31 09:20:54;;;;;;;7.40;6.77;;;14.60;99.90;;;;;;5035150;28;20215;-90
2022/10/31 09:23:22;;;;;;;10.47;7.00;;;14.80;99.90;;;;;;5036180;28;20208;-89
2022/10/31 09:25:49;;;;;;;7.43;6.73;;;14.60;99.90;;;;;;5040010;28;20237;-87
2022/10/31 09:28:18;;;;;;;7.67;6.97;;;14.60;99.90;;;;;;5045064;28;20252;-89
2022/10/31 09:30:46;;;;;;;7.13;6.40;;;14.70;99.90;;;;;;5040115;28;20537;-89
2022/10/31 09:33:13;;;;;;;9.43;6.57;;;14.80;99.90;;;;;;5032303;28;20218;-88
2022/10/31 09:35:40;;;;;;;7.93;6.57;;;14.90;99.90;;;;;;5037389;28;20201;-87
2022/10/31 09:38:11;;;;;;;6.67;6.07;;;15.20;99.90;;;;;;5033320;28;20288;-87
2022/10/31 09:40:40;;;;;;;9.20;7.60;;;15.40;99.90;;;;;;5026328;28;20207;-87
2022/10/31 09:43:33;;;;;;;6.65;6.07;;;15.40;99.90;;;;;;5032976;28;20210;-87
2022/10/31 09:46:18;;;;;;;9.00;7.35;;;15.70;98.20;;;;;;5033948;28;20244;-89
2022/10/31 09:48:55;;;;;;;8.88;6.90;;;15.60;99.90;;;;;;5037227;28;20204;-87
2022/10/31 09:51:45;;;;;;;8.48;6.57;;;15.70;99.90;;;;;;5036645;28;20194;-87
2022/10/31 09:54:21;;;;;;;10.18;7.15;;;15.90;98.50;;;;;;5027305;28;20195;-88
2022/10/31 09:56:47;;;;;;;7.82;7.03;;;15.80;98.70;;;;;;5026209;28;20192;-90
2022/10/31 09:59:26;;;;;;;8.38;7.07;;;15.80;96.70;;;;;;5038385;28;20207;-89
2022/10/31 10:02:13;;;;;;;7.95;7.18;;;15.70;97.90;;;;;;5031986;28;20255;-89
2022/10/31 10:04:56;;;;;;;9.60;6.95;;;15.90;96.40;;;;;;5028713;28;20185;-89
2022/10/31 10:07:34;;;;;;;8.00;7.20;;;16.30;95.10;;;;;;5039629;28;20207;-89
2022/10/31 10:10:07;;;;;;;10.73;7.10;;;16.40;93.40;;;;;;5028923;28;20203;-89
2022/10/31 10:12:45;;;;;;;10.07;7.88;;;16.00;96.40;;;;;;5048433;28;20195;-88
2022/10/31 10:15:24;;;;;;;8.20;7.22;;;15.90;96.60;;;;;;5031854;28;20196;-89
2022/10/31 10:18:21;;;;;;;7.82;6.85;;;16.00;97.10;;;;;;5032773;28;20192;-90
2022/10/31 10:21:08;;;;;;;8.68;7.20;;;16.40;94.80;;;;;;5035737;28;20304;-89
2022/10/31 10:24:12;;;;;;;8.07;6.63;;;16.70;91.80;;;;;;5032871;28;20195;-90
2022/10/31 10:26:43;;;;;;;9.90;6.72;;;16.80;90.10;;;;;;5046473;28;20183;-89
2022/10/31 10:29:37;;;;;;;7.25;6.65;;;16.70;91.10;;;;;;5025467;28;20200;-87
2022/10/31 10:32:12;;;;;;;7.82;7.05;;;16.80;91.00;;;;;;5026945;28;20189;-89
2022/10/31 10:34:46;;;;;;;9.25;7.30;;;16.60;90.80;;;;;;5031786;28;20261;-90
2022/10/31 10:37:31;;;;;;;8.00;7.20;;;16.60;93.10;;;;;;5029999;28;20204;-90
2022/10/31 10:40:17;;;;;;;16.52;7.68;;;16.50;93.90;;;;;;5026217;28;20224;-90
2022/10/31 10:43:23;;;;;;;6.72;6.03;;;16.60;94.30;;;;;;5033071;28;20839;-89
2022/10/31 10:49:23;;;;;;;9.40;7.75;;;16.90;92.90;;;;;;5021052;28;20239;-89
2022/10/31 10:51:59;;;;;;;7.65;6.90;;;17.10;91.80;;;;;;5022247;28;20580;-90
2022/10/31 10:54:46;;;;;;;7.50;6.43;;;17.10;91.70;;;;;;5021460;28;20252;-89
2022/10/31 10:57:32;;;;;;;10.80;6.93;;;17.10;89.90;;;;;;5021403;28;20176;-89
2022/10/31 11:00:03;;;;;;;7.47;6.78;;;17.10;89.10;;;;;;5020746;28;20295;-88
2022/10/31 11:02:32;;;;;;;9.35;7.60;;;17.20;88.50;;;;;;5001213;28;20181;-89
2022/10/31 11:05:01;;;;;;;9.60;6.68;;;17.10;88.00;;;;;;5019298;28;20173;-86
2022/10/31 11:07:39;;;;;;;9.90;7.25;;;17.20;88.60;;;;;;5019148;28;20200;-88
2022/10/31 11:10:13;;;;;;;7.57;6.88;;;17.30;88.70;;;;;;5024354;28;20243;-87
2022/10/31 11:12:40;;;;;;;14.32;8.27;;;17.30;88.60;;;;;;5023145;28;20163;-87
2022/10/31 11:15:19;;;;;;;10.48;7.90;;;17.30;89.90;;;;;;5024981;28;20275;-87
2022/10/31 11:17:52;;;;;;;7.35;6.40;;;17.40;89.00;;;;;;5024805;28;20229;-89
2022/10/31 11:20:18;;;;;;;9.68;7.40;;;17.40;88.70;;;;;;5033938;28;20675;-88
2022/10/31 11:22:46;;;;;;;8.63;7.72;;;17.60;88.90;;;;;;5061345;28;20180;-87
2022/10/31 11:25:25;;;;;;;10.23;7.90;;;17.60;86.70;;;;;;5064042;28;20543;-86
2022/10/31 11:28:07;;;;;;;8.23;7.47;;;17.70;84.00;;;;;;5064830;28;20218;-87
2022/10/31 11:30:44;;;;;;;8.25;7.15;;;17.50;84.10;;;;;;5059306;28;20173;-87
2022/10/31 11:33:24;;;;;;;7.95;7.22;;;17.60;83.40;;;;;;5061273;28;20199;-88
2022/10/31 11:35:52;;;;;;;9.38;7.93;;;17.70;84.80;;;;;;5064254;28;20180;-88
2022/10/31 11:38:21;;;;;;;9.48;7.80;;;17.70;84.40;;;;;;5062315;28;20217;-87
2022/10/31 11:40:57;;;;;;;8.93;7.10;;;17.70;84.50;;;;;;5020210;28;20212;-87
2022/10/31 11:43:23;;;;;;;9.57;7.13;;;17.70;84.80;;;;;;5021566;28;20178;-86
2022/10/31 11:45:49;;;;;;;9.02;8.13;;;17.80;84.40;;;;;;5029274;28;20192;-86
2022/10/31 11:48:23;;;;;;;10.55;7.70;;;17.90;83.60;;;;;;5051589;22;20173;-86
2022/10/31 11:50:56;;;;;;;8.65;7.68;;;18.10;81.90;;;;;;5061966;28;20203;-88
2022/10/31 11:53:34;;;;;;;9.18;7.93;;;18.10;82.50;;;;;;5057477;28;20184;-87
2022/10/31 11:56:12;;;;;;;9.60;8.13;;;18.10;82.30;;;;;;5053276;28;20192;-86
2022/10/31 11:58:39;;;;;;;8.75;7.78;;;17.90;85.70;;;;;;5041660;28;20211;-87
2022/10/31 12:01:05;;;;;;;10.07;7.80;;;17.80;87.10;;;;;;5057243;28;20224;-87
2022/10/31 12:04:01;;;;;;;8.80;7.60;;;17.40;89.20;;;;;;5058663;28;20296;-87
2022/10/31 12:06:54;;;;;;;9.93;7.32;;;17.30;89.90;;;;;;5047907;28;20288;-86
2022/10/31 12:09:23;;;;;;;10.32;8.77;;;17.50;88.10;;;;;;5055408;28;20213;-87
2022/10/31 12:11:51;;;;;;;9.30;7.50;;;17.50;88.70;;;;;;5051237;28;20241;-88
2022/10/31 12:14:43;;;;;;;9.82;7.65;;;17.60;87.40;;;;;;5065081;28;20173;-90
2022/10/31 12:17:19;;;;;;;8.98;7.90;;;17.80;86.60;;;;;;5075192;28;20168;-88
2022/10/31 12:20:00;;;;;;;9.50;7.45;;;17.80;86.10;;;;;;5079561;28;20183;-87
2022/10/31 12:22:52;;;;;;;14.30;8.43;;;17.80;86.50;;;;;;5061779;28;20188;-87
2022/10/31 12:25:39;;;;;;;8.80;7.70;;;17.40;88.50;;;;;;5054501;28;20181;-88
2022/10/31 12:28:23;;;;;;;9.10;7.82;;;17.20;91.20;;;;;;5046511;28;20647;-87
2022/10/31 12:31:10;;;;;;;13.05;8.25;;;17.50;88.10;;;;;;5061195;28;20639;-88
2022/10/31 12:34:06;;;;;;;10.90;7.50;;;17.70;87.00;;;;;;5061247;28;20175;-87
2022/10/31 12:36:56;;;;;;;9.02;8.13;;;17.70;88.60;;;;;;5048177;28;20181;-87
2022/10/31 12:39:30;;;;;;;10.75;8.20;;;17.40;89.40;;;;;;5039493;28;20213;-88
2022/10/31 12:42:19;;;;;;;9.70;7.75;;;17.30;91.10;;;;;;5044782;28;20235;-87
2022/10/31 12:45:03;;;;;;;10.85;7.60;;;17.20;91.30;;;;;;5040567;28;20212;-86
2022/10/31 12:47:35;;;;;;;9.48;7.68;;;17.40;90.40;;;;;;5045964;28;20226;-89
2022/10/31 12:50:23;;;;;;;10.15;7.60;;;17.60;88.40;;;;;;5060455;28;20208;-87
2022/10/31 12:52:57;;;;;;;8.93;8.02;;;17.50;88.40;;;;;;5048939;28;20255;-87
2022/10/31 12:55:41;;;;;;;10.63;8.63;;;17.90;86.70;;;;;;5052838;28;20188;-87
2022/10/31 12:58:24;;;;;;;9.50;8.10;;;18.40;83.20;;;;;;5052586;28;20196;-87
2022/10/31 13:01:14;;;;;;;9.07;8.15;;;19.00;80.50;;;;;;5050590;28;20663;-86
2022/10/31 13:03:51;;;;;;;9.85;7.25;;;20.00;74.20;;;;;;5048825;28;20539;-85
2022/10/31 13:06:21;;;;;;;8.40;7.57;;;20.90;69.10;;;;;;5053494;28;20172;-85
2022/10/31 13:08:52;;;;;;;8.80;7.53;;;21.30;67.10;;;;;;5059892;28;20246;-84